In Rescue
 
Open Full Screen Window  High Contrast Mode
July 13, 2020 10:15 PM EDT
Weather Information
Wind Direction
  ---
Wind Speed
  00 kt (0 mph)
Wind Gust
  00 kt (0 mph)
Altimeter
30.02 in
Visibility
10 SM
Temperature
18° C
64° F
Dewpoint
13° C
55° F
Humidity
73%
1hr Rain Fall
00.00 in.
24hr Rain Fall
00.00 in.
Sky Condition
Clear
VFR

METAR KPOV 140215Z AUTO 00000KT 10SM CLR 18/13 A3002 RMK AO2 T01790131 PWINO

FAA Disclaimer: The data displayed is for advisory purposes only and is not to be used for flight planning or operations.